sensor_id;sensor_type;location;lat;lon;timestamp;pressure;altitude;pressure_sealevel;temperature;humidity
9822;BME280;4950;46.042;14.472;2023-08-21T00:01:25;98547.56;;;24.13;79.54
9822;BME280;4950;46.042;14.472;2023-08-21T00:03:52;98549.66;;;24.11;79.68
9822;BME280;4950;46.042;14.472;2023-08-21T00:06:19;98541.38;;;24.07;79.79
9822;BME280;4950;46.042;14.472;2023-08-21T00:08:45;98546.63;;;24.02;80.02
9822;BME280;4950;46.042;14.472;2023-08-21T00:11:12;98540.75;;;24.00;79.72
9822;BME280;4950;46.042;14.472;2023-08-21T00:13:39;98538.94;;;24.00;80.01
9822;BME280;4950;46.042;14.472;2023-08-21T00:16:11;98543.41;;;24.00;79.97
9822;BME280;4950;46.042;14.472;2023-08-21T00:18:38;98539.16;;;23.99;80.11
9822;BME280;4950;46.042;14.472;2023-08-21T00:21:04;98535.97;;;23.97;79.76
9822;BME280;4950;46.042;14.472;2023-08-21T00:23:31;98537.53;;;23.98;79.84
9822;BME280;4950;46.042;14.472;2023-08-21T00:25:58;98540.94;;;23.93;79.98
9822;BME280;4950;46.042;14.472;2023-08-21T00:28:25;98540.81;;;23.83;81.28
9822;BME280;4950;46.042;14.472;2023-08-21T00:31:00;98535.63;;;23.76;81.44
9822;BME280;4950;46.042;14.472;2023-08-21T00:33:28;98537.50;;;23.76;81.43
9822;BME280;4950;46.042;14.472;2023-08-21T00:35:55;98543.59;;;23.76;81.90
9822;BME280;4950;46.042;14.472;2023-08-21T00:38:22;98540.63;;;23.73;81.69
9822;BME280;4950;46.042;14.472;2023-08-21T00:40:49;98539.50;;;23.69;81.85
9822;BME280;4950;46.042;14.472;2023-08-21T00:43:16;98532.03;;;23.65;81.79
9822;BME280;4950;46.042;14.472;2023-08-21T00:45:44;98533.63;;;23.66;81.30
9822;BME280;4950;46.042;14.472;2023-08-21T00:48:12;98536.28;;;23.66;81.08
9822;BME280;4950;46.042;14.472;2023-08-21T00:50:41;98542.09;;;23.63;80.80
9822;BME280;4950;46.042;14.472;2023-08-21T00:53:08;98538.88;;;23.61;80.46
9822;BME280;4950;46.042;14.472;2023-08-21T00:55:35;98537.25;;;23.60;81.18
9822;BME280;4950;46.042;14.472;2023-08-21T00:58:02;98535.97;;;23.63;81.37
9822;BME280;4950;46.042;14.472;2023-08-21T01:00:30;98536.47;;;23.60;81.10
9822;BME280;4950;46.042;14.472;2023-08-21T01:02:56;98535.91;;;23.58;80.98
9822;BME280;4950;46.042;14.472;2023-08-21T01:05:23;98546.50;;;23.58;81.09
9822;BME280;4950;46.042;14.472;2023-08-21T01:07:53;98544.19;;;23.61;80.54
9822;BME280;4950;46.042;14.472;2023-08-21T01:10:33;98543.34;;;23.61;80.81
9822;BME280;4950;46.042;14.472;2023-08-21T01:13:08;98547.06;;;23.60;80.61
9822;BME280;4950;46.042;14.472;2023-08-21T01:15:38;98544.66;;;23.58;80.49
9822;BME280;4950;46.042;14.472;2023-08-21T01:18:06;98539.34;;;23.58;81.20
9822;BME280;4950;46.042;14.472;2023-08-21T01:20:35;98542.25;;;23.57;80.76
9822;BME280;4950;46.042;14.472;2023-08-21T01:23:05;98535.91;;;23.58;80.28
9822;BME280;4950;46.042;14.472;2023-08-21T01:25:33;98535.66;;;23.59;80.70
9822;BME280;4950;46.042;14.472;2023-08-21T01:28:01;98539.69;;;23.62;80.11
9822;BME280;4950;46.042;14.472;2023-08-21T01:30:29;98535.66;;;23.59;80.00
9822;BME280;4950;46.042;14.472;2023-08-21T01:33:00;98537.44;;;23.54;79.90
9822;BME280;4950;46.042;14.472;2023-08-21T01:35:31;98528.59;;;23.48;80.44
9822;BME280;4950;46.042;14.472;2023-08-21T01:38:00;98541.06;;;23.48;80.89
9822;BME280;4950;46.042;14.472;2023-08-21T01:40:27;98541.13;;;23.53;80.67
9822;BME280;4950;46.042;14.472;2023-08-21T01:42:55;98538.66;;;23.46;80.31
9822;BME280;4950;46.042;14.472;2023-08-21T01:45:22;98545.81;;;23.45;80.31
9822;BME280;4950;46.042;14.472;2023-08-21T01:47:49;98539.22;;;23.48;80.68
9822;BME280;4950;46.042;14.472;2023-08-21T01:50:15;98545.56;;;23.30;80.60
9822;BME280;4950;46.042;14.472;2023-08-21T01:52:42;98541.59;;;23.16;81.93
9822;BME280;4950;46.042;14.472;2023-08-21T01:55:09;98544.75;;;23.13;81.91
9822;BME280;4950;46.042;14.472;2023-08-21T01:57:37;98549.22;;;23.12;81.81
9822;BME280;4950;46.042;14.472;2023-08-21T02:00:07;98544.75;;;23.13;81.70
9822;BME280;4950;46.042;14.472;2023-08-21T02:02:33;98541.03;;;23.14;82.08
9822;BME280;4950;46.042;14.472;2023-08-21T02:05:00;98546.81;;;23.11;81.92
9822;BME280;4950;46.042;14.472;2023-08-21T02:07:28;98541.53;;;23.11;81.94
9822;BME280;4950;46.042;14.472;2023-08-21T02:09:55;98544.97;;;23.11;81.47
9822;BME280;4950;46.042;14.472;2023-08-21T02:12:21;98551.66;;;23.02;81.91
9822;BME280;4950;46.042;14.472;2023-08-21T02:14:48;98544.22;;;22.99;82.01
9822;BME280;4950;46.042;14.472;2023-08-21T02:17:16;98544.31;;;23.04;81.78
9822;BME280;4950;46.042;14.472;2023-08-21T02:19:43;98538.41;;;23.02;82.07
9822;BME280;4950;46.042;14.472;2023-08-21T02:22:09;98538.66;;;23.00;81.75
9822;BME280;4950;46.042;14.472;2023-08-21T02:24:36;98541.00;;;22.97;82.20
9822;BME280;4950;46.042;14.472;2023-08-21T02:27:03;98553.66;;;22.95;82.02
9822;BME280;4950;46.042;14.472;2023-08-21T02:29:30;98545.84;;;22.88;82.38
9822;BME280;4950;46.042;14.472;2023-08-21T02:31:57;98546.09;;;22.86;82.26
9822;BME280;4950;46.042;14.472;2023-08-21T02:34:25;98535.25;;;22.88;82.32
9822;BME280;4950;46.042;14.472;2023-08-21T02:36:52;98541.69;;;22.92;82.02
9822;BME280;4950;46.042;14.472;2023-08-21T02:39:19;98547.22;;;22.91;82.18
9822;BME280;4950;46.042;14.472;2023-08-21T02:41:46;98552.84;;;22.94;82.13
9822;BME280;4950;46.042;14.472;2023-08-21T02:44:12;98547.56;;;22.94;81.71
9822;BME280;4950;46.042;14.472;2023-08-21T02:46:39;98551.72;;;22.90;82.23
9822;BME280;4950;46.042;14.472;2023-08-21T02:49:06;98550.13;;;22.89;82.19
9822;BME280;4950;46.042;14.472;2023-08-21T02:51:34;98551.16;;;22.88;82.03
9822;BME280;4950;46.042;14.472;2023-08-21T02:54:01;98552.78;;;22.89;82.53
9822;BME280;4950;46.042;14.472;2023-08-21T02:56:28;98538.34;;;22.97;82.00
9822;BME280;4950;46.042;14.472;2023-08-21T02:58:54;98547.22;;;22.91;81.51
9822;BME280;4950;46.042;14.472;2023-08-21T03:01:21;98544.25;;;22.87;81.57
9822;BME280;4950;46.042;14.472;2023-08-21T03:03:48;98537.50;;;22.79;81.98
9822;BME280;4950;46.042;14.472;2023-08-21T03:06:15;98543.75;;;22.73;82.19
9822;BME280;4950;46.042;14.472;2023-08-21T03:08:43;98545.56;;;22.73;81.90
9822;BME280;4950;46.042;14.472;2023-08-21T03:11:10;98547.88;;;22.69;82.06
9822;BME280;4950;46.042;14.472;2023-08-21T03:13:38;98541.00;;;22.68;82.49
9822;BME280;4950;46.042;14.472;2023-08-21T03:16:05;98543.78;;;22.61;82.44
9822;BME280;4950;46.042;14.472;2023-08-21T03:18:32;98544.81;;;22.60;82.80
9822;BME280;4950;46.042;14.472;2023-08-21T03:20:59;98545.16;;;22.64;82.60
9822;BME280;4950;46.042;14.472;2023-08-21T03:23:25;98550.69;;;22.62;82.13
9822;BME280;4950;46.042;14.472;2023-08-21T03:25:54;98549.78;;;22.57;82.44
9822;BME280;4950;46.042;14.472;2023-08-21T03:28:20;98551.63;;;22.56;82.03
9822;BME280;4950;46.042;14.472;2023-08-21T03:30:47;98548.41;;;22.54;81.72
9822;BME280;4950;46.042;14.472;2023-08-21T03:33:14;98543.91;;;22.55;81.47
9822;BME280;4950;46.042;14.472;2023-08-21T03:35:41;98555.06;;;22.57;81.62
9822;BME280;4950;46.042;14.472;2023-08-21T03:38:07;98548.75;;;22.58;81.27
9822;BME280;4950;46.042;14.472;2023-08-21T03:40:34;98550.91;;;22.61;81.96
9822;BME280;4950;46.042;14.472;2023-08-21T03:43:02;98547.25;;;22.62;81.33
9822;BME280;4950;46.042;14.472;2023-08-21T03:45:29;98564.88;;;22.56;81.67
9822;BME280;4950;46.042;14.472;2023-08-21T03:47:56;98562.22;;;22.56;81.73
9822;BME280;4950;46.042;14.472;2023-08-21T03:50:23;98553.38;;;22.51;81.74
9822;BME280;4950;46.042;14.472;2023-08-21T03:52:49;98551.31;;;22.41;82.79
9822;BME280;4950;46.042;14.472;2023-08-21T03:55:16;98554.00;;;22.29;83.13
9822;BME280;4950;46.042;14.472;2023-08-21T03:57:43;98554.56;;;22.19;83.99
9822;BME280;4950;46.042;14.472;2023-08-21T04:00:12;98559.84;;;22.19;83.66
9822;BME280;4950;46.042;14.472;2023-08-21T04:02:39;98559.63;;;22.21;84.11
9822;BME280;4950;46.042;14.472;2023-08-21T04:05:06;98565.94;;;22.20;83.71
9822;BME280;4950;46.042;14.472;2023-08-21T04:07:33;98565.59;;;22.16;83.52
9822;BME280;4950;46.042;14.472;2023-08-21T04:10:00;98560.31;;;22.04;84.50
9822;BME280;4950;46.042;14.472;2023-08-21T04:12:26;98556.88;;;22.04;84.16
9822;BME280;4950;46.042;14.472;2023-08-21T04:14:54;98564.09;;;22.08;84.02
9822;BME280;4950;46.042;14.472;2023-08-21T04:17:22;98563.66;;;22.12;84.38
9822;BME280;4950;46.042;14.472;2023-08-21T04:19:49;98562.88;;;22.11;84.36
9822;BME280;4950;46.042;14.472;2023-08-21T04:22:16;98559.50;;;22.16;83.93
9822;BME280;4950;46.042;14.472;2023-08-21T04:24:44;98556.88;;;22.16;84.23
9822;BME280;4950;46.042;14.472;2023-08-21T04:27:11;98559.38;;;22.11;84.89
9822;BME280;4950;46.042;14.472;2023-08-21T04:29:38;98567.69;;;22.02;85.74
9822;BME280;4950;46.042;14.472;2023-08-21T04:32:06;98558.03;;;21.96;86.04
9822;BME280;4950;46.042;14.472;2023-08-21T04:34:34;98563.56;;;21.95;85.70
9822;BME280;4950;46.042;14.472;2023-08-21T04:37:01;98565.03;;;21.91;85.47
9822;BME280;4950;46.042;14.472;2023-08-21T04:39:27;98571.84;;;21.86;85.69
9822;BME280;4950;46.042;14.472;2023-08-21T04:41:54;98569.75;;;21.88;85.20
9822;BME280;4950;46.042;14.472;2023-08-21T04:44:21;98568.16;;;21.87;84.79
9822;BME280;4950;46.042;14.472;2023-08-21T04:46:48;98566.31;;;21.76;85.54
9822;BME280;4950;46.042;14.472;2023-08-21T04:49:16;98572.41;;;21.77;86.12
9822;BME280;4950;46.042;14.472;2023-08-21T04:51:44;98570.81;;;21.76;86.53
9822;BME280;4950;46.042;14.472;2023-08-21T04:54:10;98573.47;;;21.76;86.56
9822;BME280;4950;46.042;14.472;2023-08-21T04:56:37;98567.59;;;21.74;86.33
9822;BME280;4950;46.042;14.472;2023-08-21T04:59:04;98571.03;;;21.74;86.45
9822;BME280;4950;46.042;14.472;2023-08-21T05:01:31;98575.63;;;21.79;86.24
9822;BME280;4950;46.042;14.472;2023-08-21T05:03:57;98584.34;;;21.79;86.15
9822;BME280;4950;46.042;14.472;2023-08-21T05:06:24;98578.63;;;21.82;86.25
9822;BME280;4950;46.042;14.472;2023-08-21T05:08:52;98586.41;;;21.89;86.17
9822;BME280;4950;46.042;14.472;2023-08-21T05:11:19;98579.66;;;21.93;85.59
9822;BME280;4950;46.042;14.472;2023-08-21T05:13:46;98582.41;;;21.98;85.46
9822;BME280;4950;46.042;14.472;2023-08-21T05:16:12;98583.19;;;21.87;85.28
9822;BME280;4950;46.042;14.472;2023-08-21T05:18:39;98586.56;;;21.82;85.91
9822;BME280;4950;46.042;14.472;2023-08-21T05:21:07;98590.56;;;21.85;85.96
9822;BME280;4950;46.042;14.472;2023-08-21T05:23:34;98597.13;;;21.94;85.95
9822;BME280;4950;46.042;14.472;2023-08-21T05:26:02;98601.50;;;22.00;85.70
9822;BME280;4950;46.042;14.472;2023-08-21T05:28:29;98604.13;;;22.00;86.12
9822;BME280;4950;46.042;14.472;2023-08-21T05:30:56;98597.59;;;22.03;85.93
9822;BME280;4950;46.042;14.472;2023-08-21T05:33:23;98598.84;;;22.00;86.26
9822;BME280;4950;46.042;14.472;2023-08-21T05:35:50;98604.34;;;21.99;86.66
9822;BME280;4950;46.042;14.472;2023-08-21T05:38:17;98595.84;;;21.97;86.48
9822;BME280;4950;46.042;14.472;2023-08-21T05:40:44;98606.19;;;21.98;87.08
9822;BME280;4950;46.042;14.472;2023-08-21T05:43:12;98603.56;;;21.98;87.24
9822;BME280;4950;46.042;14.472;2023-08-21T05:45:39;98611.50;;;21.98;87.59
9822;BME280;4950;46.042;14.472;2023-08-21T05:48:06;98607.00;;;21.99;88.13
9822;BME280;4950;46.042;14.472;2023-08-21T05:50:32;98604.47;;;22.04;88.75
9822;BME280;4950;46.042;14.472;2023-08-21T05:53:02;98607.13;;;21.92;88.89
9822;BME280;4950;46.042;14.472;2023-08-21T05:57:55;98610.91;;;21.73;90.64
9822;BME280;4950;46.042;14.472;2023-08-21T06:00:24;98606.88;;;21.70;91.02
9822;BME280;4950;46.042;14.472;2023-08-21T06:02:50;98611.47;;;21.75;91.49
9822;BME280;4950;46.042;14.472;2023-08-21T06:05:17;98615.63;;;21.82;91.20
9822;BME280;4950;46.042;14.472;2023-08-21T06:07:44;98616.91;;;21.80;91.82
9822;BME280;4950;46.042;14.472;2023-08-21T06:10:11;98617.47;;;21.82;91.76
9822;BME280;4950;46.042;14.472;2023-08-21T06:12:39;98615.28;;;21.79;91.97
9822;BME280;4950;46.042;14.472;2023-08-21T06:15:06;98617.47;;;21.82;91.82
9822;BME280;4950;46.042;14.472;2023-08-21T06:17:36;98617.56;;;21.87;91.53
9822;BME280;4950;46.042;14.472;2023-08-21T06:20:03;98616.56;;;21.88;91.53
9822;BME280;4950;46.042;14.472;2023-08-21T06:22:31;98626.34;;;21.87;92.17
9822;BME280;4950;46.042;14.472;2023-08-21T06:24:58;98614.13;;;21.86;91.98
9822;BME280;4950;46.042;14.472;2023-08-21T06:27:24;98621.25;;;21.86;92.30
9822;BME280;4950;46.042;14.472;2023-08-21T06:29:51;98620.69;;;21.84;91.99
9822;BME280;4950;46.042;14.472;2023-08-21T06:32:18;98625.06;;;21.78;93.02
9822;BME280;4950;46.042;14.472;2023-08-21T06:34:46;98622.97;;;21.80;93.09
9822;BME280;4950;46.042;14.472;2023-08-21T06:37:13;98621.63;;;21.78;93.70
9822;BME280;4950;46.042;14.472;2023-08-21T06:39:40;98617.47;;;21.70;94.08
9822;BME280;4950;46.042;14.472;2023-08-21T06:42:06;98615.16;;;21.74;94.35
9822;BME280;4950;46.042;14.472;2023-08-21T06:44:33;98622.75;;;21.82;94.19
9822;BME280;4950;46.042;14.472;2023-08-21T06:47:00;98616.06;;;21.79;94.04
9822;BME280;4950;46.042;14.472;2023-08-21T06:49:27;98615.50;;;21.77;94.29
9822;BME280;4950;46.042;14.472;2023-08-21T06:51:55;98614.47;;;21.78;94.70
9822;BME280;4950;46.042;14.472;2023-08-21T06:54:22;98617.91;;;21.79;94.19
9822;BME280;4950;46.042;14.472;2023-08-21T06:56:48;98616.91;;;21.80;94.37
9822;BME280;4950;46.042;14.472;2023-08-21T06:59:15;98619.06;;;21.83;95.07
9822;BME280;4950;46.042;14.472;2023-08-21T07:01:42;98615.97;;;21.86;94.54
9822;BME280;4950;46.042;14.472;2023-08-21T07:04:08;98617.56;;;21.87;94.83
9822;BME280;4950;46.042;14.472;2023-08-21T07:06:35;98615.19;;;21.85;94.68
9822;BME280;4950;46.042;14.472;2023-08-21T07:09:03;98614.72;;;21.88;94.80
9822;BME280;4950;46.042;14.472;2023-08-21T07:11:30;98615.28;;;21.91;95.04
9822;BME280;4950;46.042;14.472;2023-08-21T07:13:57;98619.66;;;21.97;94.95
9822;BME280;4950;46.042;14.472;2023-08-21T07:16:24;98611.97;;;21.95;95.32
9822;BME280;4950;46.042;14.472;2023-08-21T07:18:51;98615.50;;;22.01;95.49
9822;BME280;4950;46.042;14.472;2023-08-21T07:21:18;98617.00;;;22.08;95.24
9822;BME280;4950;46.042;14.472;2023-08-21T07:23:45;98612.19;;;22.17;94.88
9822;BME280;4950;46.042;14.472;2023-08-21T07:26:13;98614.50;;;22.25;93.86
9822;BME280;4950;46.042;14.472;2023-08-21T07:28:40;98611.50;;;22.34;93.35
9822;BME280;4950;46.042;14.472;2023-08-21T07:31:07;98617.69;;;22.39;92.93
9822;BME280;4950;46.042;14.472;2023-08-21T07:33:34;98614.84;;;22.41;92.29
9822;BME280;4950;46.042;14.472;2023-08-21T07:36:02;98617.69;;;22.39;92.42
9822;BME280;4950;46.042;14.472;2023-08-21T07:38:29;98615.53;;;22.48;92.03
9822;BME280;4950;46.042;14.472;2023-08-21T07:41:03;98614.88;;;22.70;91.12
9822;BME280;4950;46.042;14.472;2023-08-21T07:43:32;98617.16;;;22.78;90.58
9822;BME280;4950;46.042;14.472;2023-08-21T07:46:02;98615.88;;;22.80;89.98
9822;BME280;4950;46.042;14.472;2023-08-21T07:48:28;98614.84;;;22.81;89.50
9822;BME280;4950;46.042;14.472;2023-08-21T07:50:55;98611.50;;;22.86;89.05
9822;BME280;4950;46.042;14.472;2023-08-21T07:53:22;98617.91;;;22.90;89.35
9822;BME280;4950;46.042;14.472;2023-08-21T07:55:49;98617.47;;;22.93;89.17
9822;BME280;4950;46.042;14.472;2023-08-21T07:58:16;98609.72;;;23.03;89.01
9822;BME280;4950;46.042;14.472;2023-08-21T08:00:45;98612.09;;;23.17;88.19
9822;BME280;4950;46.042;14.472;2023-08-21T08:03:12;98607.69;;;23.22;88.40
9822;BME280;4950;46.042;14.472;2023-08-21T08:05:39;98599.91;;;23.33;88.31
9822;BME280;4950;46.042;14.472;2023-08-21T08:08:07;98602.03;;;23.48;87.86
9822;BME280;4950;46.042;14.472;2023-08-21T08:10:33;98601.38;;;23.57;87.51
9822;BME280;4950;46.042;14.472;2023-08-21T08:13:03;98605.72;;;23.63;86.98
9822;BME280;4950;46.042;14.472;2023-08-21T08:15:30;98608.44;;;23.69;86.47
9822;BME280;4950;46.042;14.472;2023-08-21T08:17:58;98600.00;;;23.72;86.72
9822;BME280;4950;46.042;14.472;2023-08-21T08:20:24;98606.19;;;23.77;85.69
9822;BME280;4950;46.042;14.472;2023-08-21T08:22:51;98600.75;;;23.84;85.87
9822;BME280;4950;46.042;14.472;2023-08-21T08:25:18;98596.13;;;24.13;84.37
9822;BME280;4950;46.042;14.472;2023-08-21T08:27:45;98598.81;;;24.35;83.29
9822;BME280;4950;46.042;14.472;2023-08-21T08:30:12;98595.72;;;24.43;83.02
9822;BME280;4950;46.042;14.472;2023-08-21T08:32:40;98596.13;;;24.52;82.99
9822;BME280;4950;46.042;14.472;2023-08-21T08:35:11;98586.44;;;24.63;82.09
9822;BME280;4950;46.042;14.472;2023-08-21T08:37:38;98592.84;;;24.67;80.89
9822;BME280;4950;46.042;14.472;2023-08-21T08:40:06;98586.22;;;24.70;81.30
9822;BME280;4950;46.042;14.472;2023-08-21T08:42:34;98586.00;;;24.71;80.90
9822;BME280;4950;46.042;14.472;2023-08-21T08:45:02;98583.94;;;24.78;80.99
9822;BME280;4950;46.042;14.472;2023-08-21T08:47:31;98583.25;;;24.88;80.73
9822;BME280;4950;46.042;14.472;2023-08-21T08:49:58;98581.34;;;25.11;79.63
9822;BME280;4950;46.042;14.472;2023-08-21T08:52:27;98585.88;;;25.37;77.10
9822;BME280;4950;46.042;14.472;2023-08-21T08:54:55;98576.06;;;25.43;76.91
9822;BME280;4950;46.042;14.472;2023-08-21T08:57:24;98575.00;;;25.44;76.75
9822;BME280;4950;46.042;14.472;2023-08-21T08:59:50;98574.53;;;25.52;76.39
9822;BME280;4950;46.042;14.472;2023-08-21T09:02:17;98568.78;;;25.60;75.88
9822;BME280;4950;46.042;14.472;2023-08-21T09:04:44;98566.19;;;25.76;74.88
9822;BME280;4950;46.042;14.472;2023-08-21T09:07:11;98566.03;;;25.88;74.10
9822;BME280;4950;46.042;14.472;2023-08-21T09:09:41;98570.88;;;25.96;73.95
9822;BME280;4950;46.042;14.472;2023-08-21T09:12:12;98562.66;;;26.03;72.97
9822;BME280;4950;46.042;14.472;2023-08-21T09:14:48;98565.44;;;26.28;69.43
9822;BME280;4950;46.042;14.472;2023-08-21T09:17:15;98558.59;;;26.43;70.25
9822;BME280;4950;46.042;14.472;2023-08-21T09:19:42;98561.25;;;26.48;70.73
9822;BME280;4950;46.042;14.472;2023-08-21T09:22:10;98558.63;;;26.53;70.07
9822;BME280;4950;46.042;14.472;2023-08-21T09:24:40;98553.06;;;26.59;69.53
9822;BME280;4950;46.042;14.472;2023-08-21T09:27:13;98565.13;;;26.77;66.34
9822;BME280;4950;46.042;14.472;2023-08-21T09:29:42;98555.28;;;26.88;64.86
9822;BME280;4950;46.042;14.472;2023-08-21T09:32:09;98556.34;;;26.97;64.33
9822;BME280;4950;46.042;14.472;2023-08-21T09:34:37;98554.50;;;27.08;64.51
9822;BME280;4950;46.042;14.472;2023-08-21T09:37:05;98547.59;;;27.33;64.04
9822;BME280;4950;46.042;14.472;2023-08-21T09:39:34;98544.91;;;27.53;63.22
9822;BME280;4950;46.042;14.472;2023-08-21T09:42:06;98548.38;;;27.64;63.45
9822;BME280;4950;46.042;14.472;2023-08-21T09:44:38;98544.38;;;27.67;62.32
9822;BME280;4950;46.042;14.472;2023-08-21T09:47:08;98545.41;;;27.76;62.97
9822;BME280;4950;46.042;14.472;2023-08-21T09:49:36;98539.00;;;27.77;63.24
9822;BME280;4950;46.042;14.472;2023-08-21T09:52:04;98542.19;;;27.84;64.35
9822;BME280;4950;46.042;14.472;2023-08-21T09:54:32;98537.41;;;27.91;63.01
9822;BME280;4950;46.042;14.472;2023-08-21T09:57:01;98533.38;;;27.99;62.95
9822;BME280;4950;46.042;14.472;2023-08-21T09:59:30;98530.16;;;28.07;62.29
9822;BME280;4950;46.042;14.472;2023-08-21T10:01:59;98529.56;;;28.15;62.71
9822;BME280;4950;46.042;14.472;2023-08-21T10:04:28;98529.81;;;28.24;61.81
9822;BME280;4950;46.042;14.472;2023-08-21T10:06:56;98527.31;;;28.43;61.27
9822;BME280;4950;46.042;14.472;2023-08-21T10:09:24;98524.34;;;28.55;61.67
9822;BME280;4950;46.042;14.472;2023-08-21T10:11:52;98514.16;;;28.62;61.88
9822;BME280;4950;46.042;14.472;2023-08-21T10:14:21;98512.44;;;28.77;61.47
9822;BME280;4950;46.042;14.472;2023-08-21T10:16:51;98512.66;;;28.90;62.44
9822;BME280;4950;46.042;14.472;2023-08-21T10:19:19;98508.56;;;28.98;61.26
9822;BME280;4950;46.042;14.472;2023-08-21T10:21:47;98504.44;;;29.16;58.51
9822;BME280;4950;46.042;14.472;2023-08-21T10:24:26;98509.09;;;29.34;58.61
9822;BME280;4950;46.042;14.472;2023-08-21T10:26:53;98513.94;;;29.57;57.72
9822;BME280;4950;46.042;14.472;2023-08-21T10:29:20;98510.16;;;29.63;57.08
9822;BME280;4950;46.042;14.472;2023-08-21T10:32:00;98505.75;;;29.48;57.65
9822;BME280;4950;46.042;14.472;2023-08-21T10:34:32;98508.22;;;29.39;57.66
9822;BME280;4950;46.042;14.472;2023-08-21T10:37:09;98509.50;;;29.47;58.80
9822;BME280;4950;46.042;14.472;2023-08-21T10:39:37;98497.97;;;29.51;58.31
9822;BME280;4950;46.042;14.472;2023-08-21T10:42:07;98495.81;;;29.53;58.75
9822;BME280;4950;46.042;14.472;2023-08-21T10:44:37;98498.41;;;29.59;59.54
9822;BME280;4950;46.042;14.472;2023-08-21T10:47:16;98501.19;;;29.78;58.07
9822;BME280;4950;46.042;14.472;2023-08-21T10:49:44;98496.03;;;29.86;56.29
9822;BME280;4950;46.042;14.472;2023-08-21T10:52:11;98502.03;;;29.97;56.94
9822;BME280;4950;46.042;14.472;2023-08-21T10:54:46;98498.22;;;30.03;56.09
9822;BME280;4950;46.042;14.472;2023-08-21T10:57:13;98500.78;;;30.14;55.59
9822;BME280;4950;46.042;14.472;2023-08-21T10:59:50;98494.78;;;30.22;55.02
9822;BME280;4950;46.042;14.472;2023-08-21T11:02:18;98487.41;;;30.33;54.76
9822;BME280;4950;46.042;14.472;2023-08-21T11:04:45;98495.69;;;30.36;56.20
9822;BME280;4950;46.042;14.472;2023-08-21T11:07:11;98492.06;;;30.46;56.77
9822;BME280;4950;46.042;14.472;2023-08-21T11:09:39;98485.31;;;30.48;56.33
9822;BME280;4950;46.042;14.472;2023-08-21T11:12:07;98485.09;;;30.64;54.01
9822;BME280;4950;46.042;14.472;2023-08-21T11:14:34;98478.56;;;30.70;53.24
9822;BME280;4950;46.042;14.472;2023-08-21T11:17:01;98470.16;;;30.77;53.30
9822;BME280;4950;46.042;14.472;2023-08-21T11:19:31;98485.94;;;30.97;52.72
9822;BME280;4950;46.042;14.472;2023-08-21T11:21:59;98474.75;;;31.09;51.44
9822;BME280;4950;46.042;14.472;2023-08-21T11:24:39;98474.75;;;31.09;51.95
9822;BME280;4950;46.042;14.472;2023-08-21T11:27:08;98474.47;;;31.10;51.76
9822;BME280;4950;46.042;14.472;2023-08-21T11:29:37;98469.59;;;31.13;51.02
9822;BME280;4950;46.042;14.472;2023-08-21T11:32:07;98470.63;;;31.30;50.29
9822;BME280;4950;46.042;14.472;2023-08-21T11:34:36;98466.78;;;31.37;50.29
9822;BME280;4950;46.042;14.472;2023-08-21T11:37:04;98463.13;;;31.46;50.72
9822;BME280;4950;46.042;14.472;2023-08-21T11:39:44;98455.97;;;31.56;48.42
9822;BME280;4950;46.042;14.472;2023-08-21T11:42:12;98457.97;;;31.64;47.93
9822;BME280;4950;46.042;14.472;2023-08-21T11:44:43;98459.25;;;31.80;48.25
9822;BME280;4950;46.042;14.472;2023-08-21T11:47:11;98462.50;;;31.91;48.68
9822;BME280;4950;46.042;14.472;2023-08-21T11:49:41;98456.47;;;32.13;46.43
9822;BME280;4950;46.042;14.472;2023-08-21T11:52:08;98455.34;;;32.14;47.85
9822;BME280;4950;46.042;14.472;2023-08-21T11:54:35;98458.66;;;32.11;48.60
9822;BME280;4950;46.042;14.472;2023-08-21T11:57:09;98469.28;;;32.16;48.58
9822;BME280;4950;46.042;14.472;2023-08-21T11:59:38;98455.25;;;32.19;47.88
9822;BME280;4950;46.042;14.472;2023-08-21T12:02:14;98453.44;;;32.29;46.82
9822;BME280;4950;46.042;14.472;2023-08-21T12:04:43;98452.41;;;32.38;46.72
9822;BME280;4950;46.042;14.472;2023-08-21T12:07:10;98454.56;;;32.50;46.61
9822;BME280;4950;46.042;14.472;2023-08-21T12:09:38;98449.47;;;32.62;43.88
9822;BME280;4950;46.042;14.472;2023-08-21T12:12:06;98451.91;;;32.73;43.87
9822;BME280;4950;46.042;14.472;2023-08-21T12:14:33;98448.94;;;32.83;43.81
9822;BME280;4950;46.042;14.472;2023-08-21T12:17:04;98451.53;;;32.88;43.50
9822;BME280;4950;46.042;14.472;2023-08-21T12:19:31;98453.47;;;32.96;42.68
9822;BME280;4950;46.042;14.472;2023-08-21T12:21:59;98440.97;;;33.00;43.23
9822;BME280;4950;46.042;14.472;2023-08-21T12:24:26;98446.16;;;33.11;42.19
9822;BME280;4950;46.042;14.472;2023-08-21T12:26:52;98436.97;;;33.12;41.66
9822;BME280;4950;46.042;14.472;2023-08-21T12:29:19;98445.22;;;33.15;42.92
9822;BME280;4950;46.042;14.472;2023-08-21T12:31:46;98428.63;;;33.22;43.27
9822;BME280;4950;46.042;14.472;2023-08-21T12:34:13;98433.25;;;33.30;40.48
9822;BME280;4950;46.042;14.472;2023-08-21T12:36:40;98434.84;;;33.31;40.87
9822;BME280;4950;46.042;14.472;2023-08-21T12:39:08;98428.84;;;33.34;41.16
9822;BME280;4950;46.042;14.472;2023-08-21T12:41:35;98428.06;;;33.42;42.15
9822;BME280;4950;46.042;14.472;2023-08-21T12:44:02;98423.81;;;33.50;41.34
9822;BME280;4950;46.042;14.472;2023-08-21T12:46:29;98421.63;;;33.61;40.41
9822;BME280;4950;46.042;14.472;2023-08-21T12:48:56;98425.97;;;33.71;41.86
9822;BME280;4950;46.042;14.472;2023-08-21T12:51:24;98429.63;;;33.75;41.55
9822;BME280;4950;46.042;14.472;2023-08-21T12:53:51;98413.31;;;33.71;41.56
9822;BME280;4950;46.042;14.472;2023-08-21T12:56:18;98421.88;;;33.73;40.83
9822;BME280;4950;46.042;14.472;2023-08-21T12:58:46;98420.44;;;33.76;40.15
9822;BME280;4950;46.042;14.472;2023-08-21T13:01:13;98415.53;;;33.78;40.84
9822;BME280;4950;46.042;14.472;2023-08-21T13:03:43;98414.94;;;33.98;39.95
9822;BME280;4950;46.042;14.472;2023-08-21T13:06:10;98417.78;;;33.85;40.25
9822;BME280;4950;46.042;14.472;2023-08-21T13:08:37;98413.00;;;33.81;40.11
9822;BME280;4950;46.042;14.472;2023-08-21T13:11:04;98403.78;;;33.82;39.53
9822;BME280;4950;46.042;14.472;2023-08-21T13:13:33;98415.38;;;33.92;39.34
9822;BME280;4950;46.042;14.472;2023-08-21T13:16:00;98413.47;;;33.92;38.86